Time;durP1;ratioP1;P1;durP2;ratioP2;P2;SDS_P1;SDS_P2;PMS_P1;PMS_P2;Temp;Humidity;BMP_temperature;BMP_pressure;BME280_temperature;BME280_humidity;BME280_pressure;Samples;Min_cycle;Max_cycle;Signal;HPM_P1;HPM_P2
2022/12/10 00:01:47;;;;;;;37.17;16.30;;;;;;;-0.61;100.00;101020.00;5007224;28;20218;-73
2022/12/10 00:04:17;;;;;;;43.10;16.93;;;;;;;-0.66;100.00;101022.97;5003696;28;20191;-74
2022/12/10 00:06:43;;;;;;;36.97;15.50;;;;;;;-0.63;100.00;101030.72;5007074;28;20198;-73
2022/12/10 00:09:18;;;;;;;36.37;15.03;;;;;;;-0.61;100.00;101026.66;5006154;28;20187;-72
2022/12/10 00:11:43;;;;;;;34.80;14.57;;;;;;;-0.59;100.00;101025.13;5004928;28;20217;-74
2022/12/10 00:14:12;;;;;;;35.33;15.13;;;;;;;-0.62;100.00;101027.44;5005310;28;20188;-75
2022/12/10 00:16:38;;;;;;;37.13;15.13;;;;;;;-0.58;100.00;101031.91;5002256;28;20200;-75
2022/12/10 00:19:07;;;;;;;36.20;16.13;;;;;;;-0.59;100.00;101031.00;5000174;28;20435;-75
2022/12/10 00:21:34;;;;;;;41.50;15.93;;;;;;;-0.60;100.00;101023.38;5001537;28;20211;-72
2022/12/10 00:24:01;;;;;;;31.23;14.07;;;;;;;-0.62;100.00;101028.31;5005348;28;20203;-73
2022/12/10 00:26:38;;;;;;;39.00;14.40;;;;;;;-0.57;100.00;101034.53;5004824;28;20205;-72
2022/12/10 00:29:06;;;;;;;30.37;13.93;;;;;;;-0.55;100.00;101027.94;5004293;28;20218;-72
2022/12/10 00:31:41;;;;;;;35.67;15.53;;;;;;;-0.55;100.00;101027.94;5015236;28;20207;-72
2022/12/10 00:34:08;;;;;;;37.10;16.07;;;;;;;-0.52;100.00;101028.16;5025470;28;20195;-72
2022/12/10 00:36:44;;;;;;;37.40;14.83;;;;;;;-0.52;100.00;101029.78;4995946;28;20282;-72
2022/12/10 00:39:16;;;;;;;34.70;14.37;;;;;;;-0.53;100.00;101033.06;5014654;28;20773;-72
2022/12/10 00:41:43;;;;;;;31.37;14.43;;;;;;;-0.49;100.00;101043.41;5015084;28;20205;-73
2022/12/10 00:44:12;;;;;;;35.53;14.40;;;;;;;-0.54;100.00;101041.38;5009265;28;20191;-74
2022/12/10 00:46:38;;;;;;;36.53;14.37;;;;;;;-0.55;100.00;101032.97;5006896;28;20187;-73
2022/12/10 00:49:03;;;;;;;29.17;13.87;;;;;;;-0.57;100.00;101046.19;5004528;28;20262;-72
2022/12/10 00:51:39;;;;;;;33.00;14.27;;;;;;;-0.58;100.00;101042.84;5007299;28;20306;-72
2022/12/10 00:54:05;;;;;;;30.50;12.83;;;;;;;-0.50;100.00;101043.34;5014250;28;20190;-72
2022/12/10 00:56:32;;;;;;;33.90;13.33;;;;;;;-0.49;100.00;101047.59;5015212;28;20195;-73
2022/12/10 00:59:01;;;;;;;34.10;13.07;;;;;;;-0.52;100.00;101044.84;5009015;28;20715;-72
2022/12/10 01:01:33;;;;;;;30.40;13.10;;;;;;;-0.52;100.00;101037.31;5007357;28;20211;-73
2022/12/10 01:04:06;;;;;;;27.83;13.10;;;;;;;-0.50;100.00;101035.78;5011512;28;20202;-72
2022/12/10 01:06:49;;;;;;;31.73;13.47;;;;;;;-0.51;100.00;101041.56;5007141;28;20206;-74
2022/12/10 01:09:19;;;;;;;31.43;13.43;;;;;;;-0.46;100.00;101041.09;5006128;28;20217;-73
2022/12/10 01:11:46;;;;;;;31.40;13.27;;;;;;;-0.42;100.00;101037.13;5016616;28;20207;-74
2022/12/10 01:14:17;;;;;;;29.13;13.37;;;;;;;-0.45;100.00;101040.31;4992776;28;20282;-73
2022/12/10 01:16:53;;;;;;;30.63;13.20;;;;;;;-0.42;100.00;101038.03;5006478;28;20194;-72
2022/12/10 01:19:22;;;;;;;28.60;13.53;;;;;;;-0.40;100.00;101048.19;5022642;28;20215;-73
2022/12/10 01:21:52;;;;;;;31.93;14.37;;;;;;;-0.42;100.00;101049.72;5007796;28;20269;-75
2022/12/10 01:24:24;;;;;;;28.83;13.03;;;;;;;-0.42;100.00;101055.63;5007466;28;20206;-72
2022/12/10 01:26:50;;;;;;;28.67;13.13;;;;;;;-0.40;100.00;101051.56;4997191;28;20203;-76
2022/12/10 01:29:16;;;;;;;27.47;13.57;;;;;;;-0.39;100.00;101054.97;5010729;28;20245;-72
2022/12/10 01:31:42;;;;;;;30.00;13.27;;;;;;;-0.39;100.00;101057.47;5010798;28;20245;-72
2022/12/10 01:34:11;;;;;;;26.13;12.97;;;;;;;-0.41;100.00;101062.41;5024039;28;20187;-72
2022/12/10 01:36:43;;;;;;;28.37;12.97;;;;;;;-0.42;100.00;101063.16;5009134;28;20190;-73
2022/12/10 01:39:13;;;;;;;29.47;12.33;;;;;;;-0.39;100.00;101065.00;5018553;28;20708;-74
2022/12/10 01:41:51;;;;;;;28.13;13.17;;;;;;;-0.39;100.00;101059.97;5009013;28;20222;-73
2022/12/10 01:44:17;;;;;;;26.97;12.40;;;;;;;-0.41;100.00;101064.91;5007497;28;20265;-73
2022/12/10 01:46:48;;;;;;;27.00;12.30;;;;;;;-0.40;100.00;101061.63;5007866;28;20298;-73
2022/12/10 01:49:22;;;;;;;27.70;13.37;;;;;;;-0.42;100.00;101057.25;5002794;28;20606;-72
2022/12/10 01:51:58;;;;;;;24.57;12.77;;;;;;;-0.37;100.00;101050.88;5006244;28;20221;-72
2022/12/10 01:54:40;;;;;;;29.40;14.60;;;;;;;-0.38;100.00;101056.69;5019601;28;20636;-73
2022/12/10 01:57:22;;;;;;;29.30;13.07;;;;;;;-0.38;100.00;101062.59;5013092;28;20191;-73
2022/12/10 01:59:57;;;;;;;27.93;14.33;;;;;;;-0.39;100.00;101060.88;5007054;28;20245;-73
2022/12/10 02:03:01;;;;;;;31.53;14.53;;;;;;;-0.39;100.00;101065.00;5017723;28;20692;-74
2022/12/10 02:05:40;;;;;;;32.73;14.77;;;;;;;-0.39;100.00;101057.47;5017976;28;20230;-74
2022/12/10 02:08:30;;;;;;;28.53;13.73;;;;;;;-0.42;100.00;101059.78;5007451;28;20343;-72
2022/12/10 02:11:29;;;;;;;30.10;14.77;;;;;;;-0.39;100.00;101063.38;5002074;28;20203;-73
2022/12/10 02:14:15;;;;;;;28.47;13.40;;;;;;;-0.39;100.00;101065.00;5019337;28;20195;-73
2022/12/10 02:16:52;;;;;;;30.00;14.33;;;;;;;-0.37;100.00;101060.94;5002403;28;20206;-74
2022/12/10 02:19:52;;;;;;;30.30;14.10;;;;;;;-0.36;100.00;101063.56;5010306;28;20750;-75
2022/12/10 02:22:26;;;;;;;26.17;12.47;;;;;;;-0.36;100.00;101068.59;5010264;28;20421;-73
2022/12/10 02:25:04;;;;;;;27.77;13.47;;;;;;;-0.35;100.00;101072.00;5017275;28;20237;-72
2022/12/10 02:27:56;;;;;;;26.37;13.50;;;;;;;-0.41;100.00;101071.59;5016349;28;20203;-72
2022/12/10 02:30:26;;;;;;;27.80;13.13;;;;;;;-0.39;100.00;101070.03;5012407;28;20194;-73
2022/12/10 02:32:53;;;;;;;28.40;13.03;;;;;;;-0.38;100.00;101075.19;5023867;28;20245;-71
2022/12/10 02:35:25;;;;;;;26.57;13.77;;;;;;;-0.35;100.00;101067.84;5012859;28;20216;-73
2022/12/10 02:38:09;;;;;;;14.83;8.03;;;;;;;-0.39;100.00;101075.97;5018905;28;20603;-73
2022/12/10 02:40:48;;;;;;;11.23;6.80;;;;;;;-0.41;99.61;101074.97;5004505;28;20696;-73
2022/12/10 02:43:15;;;;;;;14.03;7.00;;;;;;;-0.33;98.45;101075.47;5010824;28;20666;-71
2022/12/10 02:45:46;;;;;;;10.53;6.73;;;;;;;-0.27;98.71;101081.78;5005664;28;20298;-76
2022/12/10 02:48:14;;;;;;;19.70;9.90;;;;;;;-0.29;98.51;101069.88;5010288;28;20693;-75
2022/12/10 02:50:44;;;;;;;22.17;11.53;;;;;;;-0.30;98.68;101071.53;5008810;28;20690;-72
2022/12/10 02:53:10;;;;;;;23.87;13.27;;;;;;;-0.28;99.36;101084.19;5008766;28;20199;-72
2022/12/10 02:56:12;;;;;;;23.33;12.23;;;;;;;-0.26;99.67;101082.66;5015685;28;20566;-71
2022/12/10 02:58:51;;;;;;;27.47;13.17;;;;;;;-0.26;99.38;101081.00;5002924;28;20266;-72
2022/12/10 03:01:32;;;;;;;27.80;13.90;;;;;;;-0.25;99.55;101080.25;5017622;28;20199;-74
2022/12/10 03:04:19;;;;;;;16.53;9.70;;;;;;;-0.36;99.59;101078.66;5008159;28;20677;-72
2022/12/10 03:07:02;;;;;;;14.10;8.77;;;;;;;-0.43;99.30;101083.19;5003927;28;20190;-72
2022/12/10 03:09:40;;;;;;;19.53;10.27;;;;;;;-0.42;98.58;101084.91;5008748;28;20179;-73
2022/12/10 03:12:21;;;;;;;14.13;9.43;;;;;;;-0.43;98.17;101075.63;5023724;28;20712;-74
2022/12/10 03:14:47;;;;;;;14.80;8.47;;;;;;;-0.42;97.56;101075.75;5003788;28;20233;-72
2022/12/10 03:17:15;;;;;;;15.17;9.50;;;;;;;-0.39;97.69;101077.59;5006502;28;20641;-72
2022/12/10 03:19:46;;;;;;;15.37;9.80;;;;;;;-0.41;98.27;101085.03;5007653;28;20231;-73
2022/12/10 03:22:18;;;;;;;19.07;10.20;;;;;;;-0.40;97.42;101084.25;5008243;28;20226;-71
2022/12/10 03:24:47;;;;;;;17.90;9.43;;;;;;;-0.45;98.15;101079.72;5005847;28;20191;-71
2022/12/10 03:27:19;;;;;;;18.77;10.97;;;;;;;-0.46;98.17;101077.97;5001634;28;20187;-72
2022/12/10 03:29:51;;;;;;;15.00;8.83;;;;;;;-0.52;97.94;101085.97;5002473;28;20297;-71
2022/12/10 03:32:22;;;;;;;19.60;10.20;;;;;;;-0.59;98.37;101082.94;5006553;28;20256;-71
2022/12/10 03:34:56;;;;;;;21.73;11.30;;;;;;;-0.54;98.30;101077.44;5004730;28;20198;-72
2022/12/10 03:37:23;;;;;;;16.50;10.43;;;;;;;-0.55;97.96;101079.88;5008018;28;20191;-72
2022/12/10 03:39:50;;;;;;;18.97;10.80;;;;;;;-0.52;97.88;101080.06;5008074;28;20253;-71
2022/12/10 03:42:19;;;;;;;20.63;10.80;;;;;;;-0.47;98.42;101081.22;5008899;28;20211;-73
2022/12/10 03:44:49;;;;;;;22.10;11.93;;;;;;;-0.45;98.27;101087.25;5005922;28;20191;-71
2022/12/10 03:47:18;;;;;;;20.10;10.87;;;;;;;-0.43;98.15;101089.09;5005053;28;20187;-72
2022/12/10 03:49:44;;;;;;;18.77;10.93;;;;;;;-0.42;97.91;101085.81;5010378;28;20215;-72
2022/12/10 03:52:15;;;;;;;17.40;10.50;;;;;;;-0.37;98.27;101091.13;5012716;28;20218;-71
2022/12/10 03:54:44;;;;;;;17.70;10.90;;;;;;;-0.37;97.98;101092.00;5009610;28;20245;-73
2022/12/10 03:57:10;;;;;;;22.17;12.60;;;;;;;-0.39;98.22;101090.16;5010049;28;20229;-71
2022/12/10 03:59:39;;;;;;;20.37;12.13;;;;;;;-0.40;98.54;101088.44;5004714;28;20579;-72
2022/12/10 04:02:07;;;;;;;20.07;11.60;;;;;;;-0.44;98.03;101087.34;5014980;28;20219;-72
2022/12/10 04:04:36;;;;;;;20.50;12.20;;;;;;;-0.43;98.38;101083.19;5010159;28;20187;-71
2022/12/10 04:07:05;;;;;;;21.57;11.83;;;;;;;-0.44;98.22;101086.47;5008385;28;20188;-71
2022/12/10 04:09:31;;;;;;;20.07;11.83;;;;;;;-0.44;98.45;101087.34;5011857;28;20184;-71
2022/12/10 04:12:00;;;;;;;19.53;9.80;;;;;;;-0.46;98.49;101088.03;5018604;28;20230;-72
2022/12/10 04:17:17;;;;;;;22.37;12.87;;;;;;;-0.52;97.99;101090.13;5007099;28;20249;-71
2022/12/10 04:19:45;;;;;;;22.07;11.43;;;;;;;-0.54;98.37;101079.94;5004504;28;20243;-73
2022/12/10 04:27:42;;;;;;;18.90;10.30;;;;;;;-0.63;98.37;101081.84;5011311;28;20266;-73
2022/12/10 04:30:10;;;;;;;16.03;9.83;;;;;;;-0.65;98.16;101088.44;5009803;28;20294;-71
2022/12/10 04:32:36;;;;;;;17.77;10.60;;;;;;;-0.56;98.80;101085.66;5004467;28;20204;-71
2022/12/10 04:35:02;;;;;;;16.97;9.73;;;;;;;-0.56;97.77;101088.16;5009565;28;20258;-72
2022/12/10 04:37:33;;;;;;;16.70;9.90;;;;;;;-0.55;97.83;101089.94;5007470;28;20199;-72
2022/12/10 04:40:02;;;;;;;17.80;10.07;;;;;;;-0.53;97.70;101075.81;5013953;28;20191;-72
2022/12/10 04:42:28;;;;;;;16.50;10.60;;;;;;;-0.55;97.50;101075.69;5007474;28;20211;-72
2022/12/10 04:44:55;;;;;;;15.37;9.17;;;;;;;-0.49;98.02;101077.75;5007599;28;20318;-73
2022/12/10 04:47:26;;;;;;;17.73;10.70;;;;;;;-0.52;97.58;101077.53;5008261;28;20366;-72
2022/12/10 04:49:52;;;;;;;18.70;10.90;;;;;;;-0.51;97.47;101084.31;5007204;28;20180;-72
2022/12/10 04:52:20;;;;;;;16.43;9.93;;;;;;;-0.44;98.15;101087.34;5008069;28;20306;-73
2022/12/10 04:54:46;;;;;;;16.03;10.37;;;;;;;-0.45;97.72;101084.75;5009131;28;20273;-72
2022/12/10 04:57:12;;;;;;;18.53;10.53;;;;;;;-0.45;97.93;101079.72;5008921;28;20280;-72
2022/12/10 04:59:38;;;;;;;40.93;18.47;;;;;;;-0.47;97.97;101088.78;5009809;28;20207;-72
2022/12/10 05:02:06;;;;;;;20.10;11.17;;;;;;;-0.45;98.26;101083.06;5022052;28;20238;-73
2022/12/10 05:04:35;;;;;;;20.23;11.00;;;;;;;-0.45;97.89;101087.25;5006127;28;20266;-73
2022/12/10 05:07:02;;;;;;;19.53;10.57;;;;;;;-0.46;97.65;101090.53;5007128;28;20297;-72
2022/12/10 05:09:28;;;;;;;17.13;9.83;;;;;;;-0.44;97.67;101089.00;5005139;28;20179;-73
2022/12/10 05:11:57;;;;;;;35.90;16.40;;;;;;;-0.43;98.34;101085.69;5004224;28;20202;-74
2022/12/10 05:14:26;;;;;;;16.50;10.13;;;;;;;-0.41;97.01;101097.59;5009810;28;20191;-73
2022/12/10 05:16:55;;;;;;;32.87;15.20;;;;;;;-0.40;97.49;101096.81;5006604;28;20195;-72
2022/12/10 05:19:21;;;;;;;93.93;35.87;;;;;;;-0.40;97.37;101091.78;5001808;28;20218;-74
2022/12/10 05:24:32;;;;;;;40.97;19.03;;;;;;;-0.40;97.88;101096.81;5007253;28;20191;-73
2022/12/10 05:26:58;;;;;;;17.33;9.27;;;;;;;-0.37;98.09;101097.03;5005921;28;20191;-72
2022/12/10 05:29:24;;;;;;;14.37;8.80;;;;;;;-0.36;97.45;101098.78;5008416;28;20619;-73
2022/12/10 05:31:50;;;;;;;17.90;9.73;;;;;;;-0.35;97.80;101089.59;5009283;28;20581;-74
2022/12/10 05:34:16;;;;;;;13.77;9.23;;;;;;;-0.35;97.66;101087.09;5009137;28;20218;-72
2022/12/10 05:36:42;;;;;;;15.53;9.07;;;;;;;-0.32;97.35;101087.28;5014842;28;20246;-72
2022/12/10 05:39:11;;;;;;;17.23;10.30;;;;;;;-0.31;97.95;101092.41;4994275;28;20697;-72
2022/12/10 05:41:40;;;;;;;19.67;11.20;;;;;;;-0.34;97.84;101097.25;4967899;28;20227;-72
2022/12/10 05:44:09;;;;;;;19.33;10.73;;;;;;;-0.31;97.79;101097.44;4990509;28;20195;-72
2022/12/10 05:46:38;;;;;;;19.90;11.10;;;;;;;-0.29;97.75;101098.41;4989971;28;20238;-73
2022/12/10 05:49:06;;;;;;;19.47;11.63;;;;;;;-0.28;98.47;101092.59;4995970;28;20274;-73
2022/12/10 05:51:37;;;;;;;19.03;11.00;;;;;;;-0.26;98.39;101095.22;4988253;28;20693;-73
2022/12/10 05:54:05;;;;;;;45.47;20.93;;;;;;;-0.30;98.58;101093.28;4985790;28;20208;-71
2022/12/10 05:56:31;;;;;;;258.93;86.83;;;;;;;-0.32;98.38;101090.66;4987247;28;20188;-72
2022/12/10 05:59:00;;;;;;;256.57;87.27;;;;;;;-0.28;98.18;101091.72;4989251;28;20200;-71
2022/12/10 06:01:28;;;;;;;35.13;17.33;;;;;;;-0.27;98.71;101096.84;4987779;28;20204;-71
2022/12/10 06:03:56;;;;;;;23.13;11.87;;;;;;;-0.26;98.49;101093.56;4987054;28;20203;-72
2022/12/10 06:06:49;;;;;;;16.80;10.33;;;;;;;-0.23;98.54;101100.47;5000956;28;20200;-71
2022/12/10 06:09:20;;;;;;;45.40;19.33;;;;;;;-0.26;98.09;101096.09;4984818;28;20210;-72
2022/12/10 06:11:49;;;;;;;201.63;68.83;;;;;;;-0.27;97.54;101101.88;4988808;28;20225;-72
2022/12/10 06:14:25;;;;;;;296.40;97.20;;;;;;;-0.28;96.67;101101.78;4986694;28;20226;-71
2022/12/10 06:16:54;;;;;;;320.30;106.33;;;;;;;-0.29;97.14;101102.56;4985334;28;20183;-71
2022/12/10 06:19:22;;;;;;;123.83;52.60;;;;;;;-0.31;97.51;101104.13;4987092;28;20217;-71
2022/12/10 06:21:51;;;;;;;124.13;65.97;;;;;;;-0.31;97.53;101114.19;4996274;28;20290;-71
2022/12/10 06:24:30;;;;;;;159.93;117.40;;;;;;;-0.31;98.49;101112.53;4987177;28;20190;-71
2022/12/10 06:26:56;;;;;;;63.57;40.77;;;;;;;-0.32;97.69;101107.41;4985152;28;20191;-72
2022/12/10 06:29:28;;;;;;;71.73;44.37;;;;;;;-0.31;97.71;101111.66;4984147;28;20610;-72
2022/12/10 06:31:53;;;;;;;27.57;16.83;;;;;;;-0.29;97.61;101103.44;4990674;28;20214;-71
2022/12/10 06:34:21;;;;;;;17.67;10.90;;;;;;;-0.26;97.28;101106.16;4980601;28;20211;-74
2022/12/10 06:36:47;;;;;;;17.77;10.27;;;;;;;-0.22;97.75;101104.72;4986425;28;20192;-72
2022/12/10 06:39:18;;;;;;;12.63;7.40;;;;;;;-0.24;96.76;101104.63;4996461;28;20228;-72
2022/12/10 06:41:47;;;;;;;10.73;6.73;;;;;;;-0.25;96.70;101112.06;4999304;28;20238;-73
2022/12/10 06:44:13;;;;;;;11.73;8.23;;;;;;;-0.25;96.02;101120.50;4986573;28;20686;-71
2022/12/10 06:46:44;;;;;;;13.27;8.07;;;;;;;-0.28;95.21;101114.34;4984791;28;20226;-71
2022/12/10 06:49:15;;;;;;;12.43;7.70;;;;;;;-0.29;94.84;101115.13;4983534;28;20192;-72
2022/12/10 06:51:41;;;;;;;11.73;8.13;;;;;;;-0.27;94.37;101121.16;4984565;28;20255;-71
2022/12/10 06:54:09;;;;;;;13.13;8.30;;;;;;;-0.25;94.95;101127.16;4987198;28;20219;-71
2022/12/10 06:56:35;;;;;;;15.23;9.20;;;;;;;-0.22;95.38;101128.22;4989469;28;20196;-73
2022/12/10 06:59:07;;;;;;;17.40;10.10;;;;;;;-0.23;95.30;101136.53;4987327;28;20212;-74
2022/12/10 07:01:33;;;;;;;17.70;10.20;;;;;;;-0.20;96.85;101138.38;4983387;28;20208;-72
2022/12/10 07:03:59;;;;;;;17.93;10.53;;;;;;;-0.19;96.94;101143.53;4967528;28;20602;-73
2022/12/10 07:06:33;;;;;;;14.90;9.07;;;;;;;-0.16;97.00;101143.72;4985670;28;20219;-73
2022/12/10 07:08:59;;;;;;;17.87;10.57;;;;;;;-0.16;96.61;101145.38;4982919;28;21323;-72
2022/12/10 07:11:25;;;;;;;19.20;11.63;;;;;;;-0.17;96.81;101141.97;4978918;28;20220;-73
2022/12/10 07:13:52;;;;;;;16.67;10.47;;;;;;;-0.18;97.02;101151.94;4992025;28;20188;-73
2022/12/10 07:16:21;;;;;;;16.23;9.30;;;;;;;-0.24;96.88;101147.38;4982636;28;20274;-73
2022/12/10 07:18:49;;;;;;;14.13;9.00;;;;;;;-0.23;96.33;101149.13;4981567;28;20246;-73
2022/12/10 07:21:28;;;;;;;13.10;9.20;;;;;;;-0.17;96.02;101153.69;4975874;28;20216;-73
2022/12/10 07:23:58;;;;;;;14.23;9.13;;;;;;;-0.23;94.97;101153.28;4983835;28;20212;-72
2022/12/10 07:26:25;;;;;;;16.73;9.47;;;;;;;-0.18;95.68;101151.94;4984263;28;20199;-74
2022/12/10 07:28:51;;;;;;;14.00;8.80;;;;;;;-0.15;95.24;101155.53;4985089;28;20195;-72
2022/12/10 07:31:23;;;;;;;16.17;9.73;;;;;;;-0.16;95.31;101155.44;4985690;28;20222;-73
2022/12/10 07:33:57;;;;;;;15.17;9.07;;;;;;;-0.13;95.32;101156.50;4984113;28;20191;-73
2022/12/10 07:36:26;;;;;;;16.47;9.33;;;;;;;-0.14;94.62;101164.81;4966869;28;20211;-72
2022/12/10 07:38:54;;;;;;;15.57;9.33;;;;;;;-0.16;94.47;101165.50;4982701;28;20286;-74
2022/12/10 07:41:21;;;;;;;13.40;8.20;;;;;;;-0.24;93.94;101162.47;4979469;28;20216;-72
2022/12/10 07:43:50;;;;;;;15.43;9.43;;;;;;;-0.18;93.46;101164.53;4986907;28;20188;-72
2022/12/10 07:46:26;;;;;;;15.77;9.40;;;;;;;-0.20;94.06;101169.44;4986809;28;20191;-73
2022/12/10 07:48:52;;;;;;;11.53;7.33;;;;;;;-0.32;93.07;101170.28;4988102;28;20230;-74
2022/12/10 07:51:26;;;;;;;10.73;7.20;;;;;;;-0.28;92.35;101172.22;4983333;28;20220;-72
2022/12/10 07:53:58;;;;;;;10.33;7.33;;;;;;;-0.26;93.33;101171.53;4985006;28;20199;-73
2022/12/10 07:56:25;;;;;;;15.10;8.90;;;;;;;-0.23;92.60;101169.25;4983746;28;20196;-72
2022/12/10 07:58:55;;;;;;;13.67;8.63;;;;;;;-0.19;92.55;101175.34;4986198;28;20216;-75
2022/12/10 08:01:23;;;;;;;12.40;7.47;;;;;;;-0.15;93.68;101180.69;4986488;28;20631;-73
2022/12/10 08:03:56;;;;;;;13.17;7.93;;;;;;;-0.17;92.98;101177.19;4988417;28;20188;-72
2022/12/10 08:06:26;;;;;;;12.43;8.27;;;;;;;-0.18;93.54;101177.09;4986072;28;20200;-72
2022/12/10 08:08:58;;;;;;;15.90;8.50;;;;;;;-0.27;92.49;101181.53;4988327;28;20200;-75
2022/12/10 08:11:32;;;;;;;13.20;8.83;;;;;;;-0.23;92.68;101183.47;4991765;28;20273;-72
2022/12/10 08:14:01;;;;;;;17.83;10.93;;;;;;;-0.20;93.25;101183.66;4990672;28;20195;-75
2022/12/10 08:16:31;;;;;;;14.07;9.50;;;;;;;-0.17;93.51;101178.84;4991644;28;20203;-70
2022/12/10 08:18:59;;;;;;;15.37;9.90;;;;;;;-0.17;93.96;101191.44;4990881;28;20273;-74
2022/12/10 08:21:29;;;;;;;12.90;8.60;;;;;;;-0.12;94.21;101190.97;4990859;28;20215;-71
2022/12/10 08:23:56;;;;;;;13.13;9.47;;;;;;;-0.14;94.24;101195.00;4992455;28;20215;-73
2022/12/10 08:26:24;;;;;;;15.77;9.17;;;;;;;-0.11;93.89;101187.69;4989858;28;20196;-72
2022/12/10 08:28:54;;;;;;;13.33;8.90;;;;;;;-0.10;93.51;101194.44;4983142;28;20268;-71
2022/12/10 08:31:21;;;;;;;14.63;8.93;;;;;;;-0.06;93.58;101193.00;4990153;28;20230;-73
2022/12/10 08:33:47;;;;;;;15.67;9.00;;;;;;;-0.15;93.34;101195.78;4990623;28;20195;-73
2022/12/10 08:36:19;;;;;;;14.83;9.80;;;;;;;-0.12;92.45;101200.16;4983469;28;20201;-72
2022/12/10 08:38:50;;;;;;;14.50;9.63;;;;;;;-0.09;92.74;101198.69;4966251;28;20205;-74
2022/12/10 08:41:21;;;;;;;16.00;10.13;;;;;;;-0.10;92.65;101201.09;4969892;28;20216;-73
2022/12/10 08:43:55;;;;;;;17.70;10.60;;;;;;;-0.14;93.15;101207.59;4968874;28;20184;-74
2022/12/10 08:46:22;;;;;;;15.67;9.87;;;;;;;-0.11;92.47;101201.88;4978292;28;20283;-74
2022/12/10 08:48:54;;;;;;;15.03;9.97;;;;;;;-0.13;92.63;101213.50;4970770;28;20212;-72
2022/12/10 08:51:23;;;;;;;15.93;9.80;;;;;;;-0.08;92.12;101210.50;4967755;28;20263;-72
2022/12/10 08:53:49;;;;;;;15.37;9.73;;;;;;;-0.04;93.06;101209.94;4974351;28;20198;-75
2022/12/10 08:56:15;;;;;;;16.50;10.47;;;;;;;0.00;92.41;101219.44;4970032;28;20184;-75
2022/12/10 08:58:41;;;;;;;17.40;10.53;;;;;;;-0.06;92.60;101216.53;4970704;28;20220;-72
2022/12/10 09:01:12;;;;;;;16.97;10.93;;;;;;;-0.05;92.85;101218.28;4968767;28;20224;-72
2022/12/10 09:03:38;;;;;;;15.87;10.87;;;;;;;0.01;93.37;101218.66;4965071;28;20185;-73
2022/12/10 09:06:06;;;;;;;19.13;11.60;;;;;;;-0.07;91.83;101217.31;4969938;28;20240;-74
2022/12/10 09:08:35;;;;;;;20.57;13.53;;;;;;;-0.07;92.94;101221.44;4967626;28;20176;-72
2022/12/10 09:11:18;;;;;;;22.70;13.23;;;;;;;-0.06;92.72;101220.69;4964855;28;20211;-73
2022/12/10 09:13:44;;;;;;;20.83;12.93;;;;;;;-0.09;93.00;101228.88;4963435;28;20211;-72
2022/12/10 09:16:13;;;;;;;22.73;12.13;;;;;;;-0.10;92.71;101231.28;4967544;28;20196;-72
2022/12/10 09:18:39;;;;;;;18.17;10.10;;;;;;;-0.06;91.73;101234.13;4965277;28;20271;-73
2022/12/10 09:21:13;;;;;;;17.47;10.53;;;;;;;-0.09;91.17;101236.44;4965523;28;20242;-74
2022/12/10 09:23:40;;;;;;;19.47;11.87;;;;;;;-0.08;91.75;101240.69;4969678;28;20188;-74
2022/12/10 09:26:14;;;;;;;21.93;12.10;;;;;;;-0.03;92.21;101236.00;4957903;28;20208;-72
2022/12/10 09:28:44;;;;;;;23.50;13.70;;;;;;;-0.01;92.38;101236.94;4959492;28;20200;-73
2022/12/10 09:31:11;;;;;;;20.20;12.10;;;;;;;0.03;92.10;101233.88;4971267;28;20286;-73
2022/12/10 09:33:41;;;;;;;18.70;10.70;;;;;;;0.07;93.16;101235.81;4963739;28;20208;-74
2022/12/10 09:36:09;;;;;;;16.40;10.67;;;;;;;0.09;92.78;101231.75;4962256;28;20898;-72
2022/12/10 09:38:40;;;;;;;16.30;10.23;;;;;;;0.09;92.50;101237.66;4951681;28;20224;-72
2022/12/10 09:41:48;;;;;;;17.67;10.60;;;;;;;0.07;91.92;101240.84;4964224;28;20271;-75
2022/12/10 09:44:30;;;;;;;15.67;9.93;;;;;;;0.08;91.95;101235.94;4953022;28;20208;-72
2022/12/10 09:47:01;;;;;;;17.20;10.77;;;;;;;0.10;92.36;101236.91;4967672;28;20200;-74
2022/12/10 09:50:02;;;;;;;21.30;11.93;;;;;;;0.13;92.78;101240.41;4964105;28;20192;-73
2022/12/10 09:52:45;;;;;;;19.37;10.87;;;;;;;0.17;92.79;101242.34;4942402;28;20574;-73
2022/12/10 09:55:18;;;;;;;16.60;10.17;;;;;;;0.16;92.37;101238.94;4961128;28;20208;-72
2022/12/10 09:57:53;;;;;;;16.33;9.47;;;;;;;0.19;92.30;101240.03;4984327;28;20230;-73
2022/12/10 10:00:32;;;;;;;16.13;10.03;;;;;;;0.19;92.41;101231.63;5003925;28;20194;-72
2022/12/10 10:03:06;;;;;;;17.93;9.93;;;;;;;0.17;92.09;101231.50;5014471;28;20565;-73
2022/12/10 10:05:40;;;;;;;19.70;10.17;;;;;;;0.15;91.99;101229.66;5007392;28;20535;-73
2022/12/10 10:08:20;;;;;;;16.63;9.93;;;;;;;0.17;91.82;101234.03;5005078;28;20286;-73
2022/12/10 10:10:47;;;;;;;14.87;9.93;;;;;;;0.16;91.97;101233.91;5003033;28;20214;-73
2022/12/10 10:13:22;;;;;;;16.63;10.43;;;;;;;0.17;90.66;101231.50;5007853;28;20199;-74
2022/12/10 10:15:47;;;;;;;18.40;11.63;;;;;;;0.17;91.12;101223.06;5003512;28;20675;-74
2022/12/10 10:18:16;;;;;;;18.23;10.80;;;;;;;0.18;90.95;101222.28;4991882;28;20280;-73
2022/12/10 10:20:45;;;;;;;18.50;11.00;;;;;;;0.24;91.47;101226.09;5004384;28;20218;-74
2022/12/10 10:23:17;;;;;;;17.13;10.33;;;;;;;0.28;91.80;101224.66;5005605;28;20338;-73
2022/12/10 10:25:50;;;;;;;19.67;10.57;;;;;;;0.27;91.93;101220.38;5005799;28;20252;-73
2022/12/10 10:28:24;;;;;;;18.13;10.97;;;;;;;0.26;91.89;101228.72;5007619;28;20195;-72
2022/12/10 10:30:54;;;;;;;17.73;10.53;;;;;;;0.26;91.13;101221.16;5006804;28;20211;-72
2022/12/10 10:33:22;;;;;;;18.20;10.77;;;;;;;0.32;91.32;101234.13;5009588;28;20199;-73
2022/12/10 10:35:58;;;;;;;18.40;11.17;;;;;;;0.33;92.39;101230.88;5002499;28;20226;-73
2022/12/10 10:38:27;;;;;;;18.87;11.27;;;;;;;0.33;92.29;101244.31;4998034;28;20210;-75
2022/12/10 10:41:03;;;;;;;16.97;10.00;;;;;;;0.31;91.50;101244.13;4996840;28;20207;-73
2022/12/10 10:43:39;;;;;;;20.13;11.47;;;;;;;0.33;92.07;101235.91;5005918;28;20201;-73
2022/12/10 10:46:20;;;;;;;19.40;10.90;;;;;;;0.25;90.77;101234.53;5005050;28;20225;-75
2022/12/10 10:48:52;;;;;;;21.53;11.57;;;;;;;0.24;90.86;101233.63;5005878;28;20182;-72
2022/12/10 10:51:25;;;;;;;18.03;10.00;;;;;;;0.28;90.95;101238.13;5005176;28;20348;-75
2022/12/10 10:53:54;;;;;;;17.47;10.57;;;;;;;0.27;90.68;101232.97;5009151;28;20269;-74
2022/12/10 10:56:44;;;;;;;21.57;11.27;;;;;;;0.34;90.53;101235.13;5009012;28;20559;-74
2022/12/10 10:59:17;;;;;;;19.27;11.87;;;;;;;0.34;91.46;101232.63;5006868;28;20222;-73
2022/12/10 11:01:49;;;;;;;22.53;11.73;;;;;;;0.36;90.92;101236.09;5026026;28;20206;-72
2022/12/10 11:04:18;;;;;;;21.30;11.20;;;;;;;0.24;90.54;101235.31;5003954;28;20326;-73
2022/12/10 11:06:50;;;;;;;19.83;11.00;;;;;;;0.16;90.44;101233.91;5012976;28;20198;-73
2022/12/10 11:09:24;;;;;;;19.57;10.33;;;;;;;0.10;89.92;101238.56;5009757;28;20190;-73
2022/12/10 11:11:57;;;;;;;19.53;11.33;;;;;;;0.14;90.08;101233.81;5007124;28;20212;-73
2022/12/10 11:14:54;;;;;;;24.47;12.97;;;;;;;0.17;90.59;101234.81;5010625;28;20186;-72
2022/12/10 11:17:22;;;;;;;21.10;12.23;;;;;;;0.27;90.77;101232.97;5005536;28;20249;-74
2022/12/10 11:20:14;;;;;;;19.30;10.67;;;;;;;0.29;90.18;101233.97;5007741;28;20751;-73
2022/12/10 11:22:49;;;;;;;18.73;11.43;;;;;;;0.29;91.12;101234.81;5009915;28;20207;-73
2022/12/10 11:25:20;;;;;;;20.57;11.17;;;;;;;0.27;91.36;101229.59;5013156;28;20275;-73
2022/12/10 11:28:16;;;;;;;19.87;11.47;;;;;;;0.29;90.68;101221.38;5011122;28;20688;-74
2022/12/10 11:30:55;;;;;;;21.33;11.57;;;;;;;0.30;90.34;101223.13;5010272;28;20215;-73
2022/12/10 11:33:44;;;;;;;19.80;11.23;;;;;;;0.26;90.07;101217.78;5003058;28;20257;-71
2022/12/10 11:36:38;;;;;;;19.93;11.73;;;;;;;0.29;91.26;101219.72;5008580;28;20206;-73
2022/12/10 11:39:07;;;;;;;19.13;10.67;;;;;;;0.26;90.85;101218.66;5014992;28;20207;-72
2022/12/10 11:42:07;;;;;;;24.03;13.63;;;;;;;0.25;91.43;101219.44;5009998;28;20723;-72
2022/12/10 11:45:18;;;;;;;21.40;12.07;;;;;;;0.23;91.63;101220.94;5004986;28;20194;-72